sensor_id;sensor_type;location;lat;lon;timestamp;P1;durP1;ratioP1;P2;durP2;ratioP2
71196;SDS011;58918;51.652;4.864;2024-01-11T00:02:21;8.20;;;3.35;;
71196;SDS011;58918;51.652;4.864;2024-01-11T00:04:49;7.68;;;2.95;;
71196;SDS011;58918;51.652;4.864;2024-01-11T00:07:16;6.22;;;2.60;;
71196;SDS011;58918;51.652;4.864;2024-01-11T00:09:43;7.88;;;3.28;;
71196;SDS011;58918;51.652;4.864;2024-01-11T00:12:11;7.60;;;3.15;;
71196;SDS011;58918;51.652;4.864;2024-01-11T00:14:38;6.43;;;2.97;;
71196;SDS011;58918;51.652;4.864;2024-01-11T00:17:05;5.53;;;2.70;;
71196;SDS011;58918;51.652;4.864;2024-01-11T00:19:33;7.25;;;3.13;;
71196;SDS011;58918;51.652;4.864;2024-01-11T00:22:00;5.43;;;2.88;;
71196;SDS011;58918;51.652;4.864;2024-01-11T00:24:28;6.22;;;2.80;;
71196;SDS011;58918;51.652;4.864;2024-01-11T00:26:55;7.15;;;2.88;;
71196;SDS011;58918;51.652;4.864;2024-01-11T00:29:22;7.20;;;3.05;;
71196;SDS011;58918;51.652;4.864;2024-01-11T00:31:49;6.88;;;2.97;;
71196;SDS011;58918;51.652;4.864;2024-01-11T00:34:17;7.93;;;2.90;;
71196;SDS011;58918;51.652;4.864;2024-01-11T00:36:44;6.90;;;2.70;;
71196;SDS011;58918;51.652;4.864;2024-01-11T00:39:12;7.95;;;3.10;;
71196;SDS011;58918;51.652;4.864;2024-01-11T00:41:39;8.45;;;3.50;;
71196;SDS011;58918;51.652;4.864;2024-01-11T00:44:06;8.15;;;3.50;;
71196;SDS011;58918;51.652;4.864;2024-01-11T00:46:34;7.55;;;3.20;;
71196;SDS011;58918;51.652;4.864;2024-01-11T00:49:01;8.48;;;3.00;;
71196;SDS011;58918;51.652;4.864;2024-01-11T00:51:29;7.88;;;3.00;;
71196;SDS011;58918;51.652;4.864;2024-01-11T00:53:56;6.25;;;2.53;;
71196;SDS011;58918;51.652;4.864;2024-01-11T00:56:23;7.75;;;3.00;;
71196;SDS011;58918;51.652;4.864;2024-01-11T00:58:50;10.70;;;3.30;;
71196;SDS011;58918;51.652;4.864;2024-01-11T01:01:18;6.95;;;2.90;;
71196;SDS011;58918;51.652;4.864;2024-01-11T01:03:46;7.93;;;2.97;;
71196;SDS011;58918;51.652;4.864;2024-01-11T01:06:13;6.97;;;2.58;;
71196;SDS011;58918;51.652;4.864;2024-01-11T01:08:43;7.53;;;3.15;;
71196;SDS011;58918;51.652;4.864;2024-01-11T01:11:13;9.07;;;3.15;;
71196;SDS011;58918;51.652;4.864;2024-01-11T01:13:41;8.38;;;3.22;;
71196;SDS011;58918;51.652;4.864;2024-01-11T01:16:08;5.75;;;2.50;;
71196;SDS011;58918;51.652;4.864;2024-01-11T01:18:35;6.22;;;2.88;;
71196;SDS011;58918;51.652;4.864;2024-01-11T01:21:03;8.13;;;3.30;;
71196;SDS011;58918;51.652;4.864;2024-01-11T01:23:33;6.28;;;3.00;;
71196;SDS011;58918;51.652;4.864;2024-01-11T01:26:00;8.73;;;2.85;;
71196;SDS011;58918;51.652;4.864;2024-01-11T01:28:32;7.35;;;3.20;;
71196;SDS011;58918;51.652;4.864;2024-01-11T01:30:59;5.97;;;2.92;;
71196;SDS011;58918;51.652;4.864;2024-01-11T01:33:26;6.03;;;2.60;;
71196;SDS011;58918;51.652;4.864;2024-01-11T01:35:54;7.80;;;3.30;;
71196;SDS011;58918;51.652;4.864;2024-01-11T01:38:21;6.47;;;3.15;;
71196;SDS011;58918;51.652;4.864;2024-01-11T01:40:48;5.30;;;2.35;;
71196;SDS011;58918;51.652;4.864;2024-01-11T01:43:16;6.72;;;3.05;;
71196;SDS011;58918;51.652;4.864;2024-01-11T01:45:43;7.07;;;3.03;;
71196;SDS011;58918;51.652;4.864;2024-01-11T01:48:13;7.57;;;3.25;;
71196;SDS011;58918;51.652;4.864;2024-01-11T01:50:40;6.25;;;2.90;;
71196;SDS011;58918;51.652;4.864;2024-01-11T01:53:09;7.07;;;3.03;;
71196;SDS011;58918;51.652;4.864;2024-01-11T01:55:36;6.93;;;3.20;;
71196;SDS011;58918;51.652;4.864;2024-01-11T01:58:03;6.45;;;2.75;;
71196;SDS011;58918;51.652;4.864;2024-01-11T02:00:31;6.05;;;2.80;;
71196;SDS011;58918;51.652;4.864;2024-01-11T02:02:58;11.23;;;3.53;;
71196;SDS011;58918;51.652;4.864;2024-01-11T02:05:25;6.32;;;2.53;;
71196;SDS011;58918;51.652;4.864;2024-01-11T02:07:53;6.10;;;3.08;;
71196;SDS011;58918;51.652;4.864;2024-01-11T02:10:20;6.60;;;2.83;;
71196;SDS011;58918;51.652;4.864;2024-01-11T02:12:49;6.10;;;2.50;;
71196;SDS011;58918;51.652;4.864;2024-01-11T02:15:16;6.45;;;2.80;;
71196;SDS011;58918;51.652;4.864;2024-01-11T02:17:43;6.10;;;2.75;;
71196;SDS011;58918;51.652;4.864;2024-01-11T02:20:11;7.55;;;2.70;;
71196;SDS011;58918;51.652;4.864;2024-01-11T02:22:39;5.72;;;2.80;;
71196;SDS011;58918;51.652;4.864;2024-01-11T02:25:08;5.65;;;2.60;;
71196;SDS011;58918;51.652;4.864;2024-01-11T02:27:45;6.72;;;2.88;;
71196;SDS011;58918;51.652;4.864;2024-01-11T02:30:13;5.97;;;2.55;;
71196;SDS011;58918;51.652;4.864;2024-01-11T02:32:40;6.60;;;2.80;;
71196;SDS011;58918;51.652;4.864;2024-01-11T02:35:08;7.53;;;3.20;;
71196;SDS011;58918;51.652;4.864;2024-01-11T02:37:36;6.20;;;2.90;;
71196;SDS011;58918;51.652;4.864;2024-01-11T02:40:08;7.15;;;2.72;;
71196;SDS011;58918;51.652;4.864;2024-01-11T02:42:36;6.82;;;2.90;;
71196;SDS011;58918;51.652;4.864;2024-01-11T02:45:03;6.25;;;2.55;;
71196;SDS011;58918;51.652;4.864;2024-01-11T02:47:30;6.18;;;2.80;;
71196;SDS011;58918;51.652;4.864;2024-01-11T02:49:58;6.20;;;2.72;;
71196;SDS011;58918;51.652;4.864;2024-01-11T02:52:26;6.80;;;2.72;;
71196;SDS011;58918;51.652;4.864;2024-01-11T02:54:53;6.97;;;2.53;;
71196;SDS011;58918;51.652;4.864;2024-01-11T02:57:20;5.90;;;2.53;;
71196;SDS011;58918;51.652;4.864;2024-01-11T02:59:49;7.35;;;3.08;;
71196;SDS011;58918;51.652;4.864;2024-01-11T03:02:16;6.13;;;3.00;;
71196;SDS011;58918;51.652;4.864;2024-01-11T03:04:43;6.45;;;2.63;;
71196;SDS011;58918;51.652;4.864;2024-01-11T03:07:11;5.75;;;2.60;;
71196;SDS011;58918;51.652;4.864;2024-01-11T03:09:38;6.35;;;2.75;;
71196;SDS011;58918;51.652;4.864;2024-01-11T03:12:05;5.43;;;2.50;;
71196;SDS011;58918;51.652;4.864;2024-01-11T03:14:32;5.85;;;2.63;;
71196;SDS011;58918;51.652;4.864;2024-01-11T03:17:00;6.07;;;2.58;;
71196;SDS011;58918;51.652;4.864;2024-01-11T03:19:28;5.95;;;2.53;;
71196;SDS011;58918;51.652;4.864;2024-01-11T03:21:55;16.90;;;3.72;;
71196;SDS011;58918;51.652;4.864;2024-01-11T03:24:22;7.15;;;2.78;;
71196;SDS011;58918;51.652;4.864;2024-01-11T03:26:49;5.47;;;2.47;;
71196;SDS011;58918;51.652;4.864;2024-01-11T03:29:16;5.38;;;2.60;;
71196;SDS011;58918;51.652;4.864;2024-01-11T03:31:44;6.45;;;2.78;;
71196;SDS011;58918;51.652;4.864;2024-01-11T03:34:13;6.95;;;2.80;;
71196;SDS011;58918;51.652;4.864;2024-01-11T03:36:41;6.53;;;2.83;;
71196;SDS011;58918;51.652;4.864;2024-01-11T03:39:08;9.15;;;2.90;;
71196;SDS011;58918;51.652;4.864;2024-01-11T03:41:35;8.05;;;3.00;;
71196;SDS011;58918;51.652;4.864;2024-01-11T03:44:02;6.30;;;2.78;;
71196;SDS011;58918;51.652;4.864;2024-01-11T03:46:30;6.95;;;3.08;;
71196;SDS011;58918;51.652;4.864;2024-01-11T03:48:57;7.10;;;3.10;;
71196;SDS011;58918;51.652;4.864;2024-01-11T03:51:26;6.30;;;2.50;;
71196;SDS011;58918;51.652;4.864;2024-01-11T03:53:53;5.53;;;2.47;;
71196;SDS011;58918;51.652;4.864;2024-01-11T03:56:20;6.88;;;2.95;;
71196;SDS011;58918;51.652;4.864;2024-01-11T03:58:48;7.40;;;2.67;;
71196;SDS011;58918;51.652;4.864;2024-01-11T04:01:15;7.60;;;2.90;;
71196;SDS011;58918;51.652;4.864;2024-01-11T04:03:42;8.50;;;2.90;;
71196;SDS011;58918;51.652;4.864;2024-01-11T04:06:18;6.53;;;2.67;;
71196;SDS011;58918;51.652;4.864;2024-01-11T04:08:48;6.15;;;2.30;;
71196;SDS011;58918;51.652;4.864;2024-01-11T04:11:15;6.72;;;2.80;;
71196;SDS011;58918;51.652;4.864;2024-01-11T04:13:43;6.05;;;2.60;;
71196;SDS011;58918;51.652;4.864;2024-01-11T04:16:10;6.43;;;3.28;;
71196;SDS011;58918;51.652;4.864;2024-01-11T04:18:38;7.70;;;3.03;;
71196;SDS011;58918;51.652;4.864;2024-01-11T04:21:05;6.90;;;2.67;;
71196;SDS011;58918;51.652;4.864;2024-01-11T04:23:32;6.60;;;2.75;;
71196;SDS011;58918;51.652;4.864;2024-01-11T04:26:00;8.13;;;2.70;;
71196;SDS011;58918;51.652;4.864;2024-01-11T04:28:28;7.07;;;3.15;;
71196;SDS011;58918;51.652;4.864;2024-01-11T04:30:55;8.73;;;2.90;;
71196;SDS011;58918;51.652;4.864;2024-01-11T04:33:23;7.05;;;2.90;;
71196;SDS011;58918;51.652;4.864;2024-01-11T04:35:50;6.90;;;2.60;;
71196;SDS011;58918;51.652;4.864;2024-01-11T04:38:17;7.13;;;2.65;;
71196;SDS011;58918;51.652;4.864;2024-01-11T04:40:45;6.88;;;2.72;;
71196;SDS011;58918;51.652;4.864;2024-01-11T04:43:12;6.90;;;2.83;;
71196;SDS011;58918;51.652;4.864;2024-01-11T04:45:39;8.15;;;2.95;;
71196;SDS011;58918;51.652;4.864;2024-01-11T04:48:06;9.35;;;2.80;;
71196;SDS011;58918;51.652;4.864;2024-01-11T04:50:34;9.68;;;3.20;;
71196;SDS011;58918;51.652;4.864;2024-01-11T04:53:02;8.88;;;2.60;;
71196;SDS011;58918;51.652;4.864;2024-01-11T04:55:29;7.32;;;2.90;;
71196;SDS011;58918;51.652;4.864;2024-01-11T04:57:57;9.38;;;2.85;;
71196;SDS011;58918;51.652;4.864;2024-01-11T05:00:24;6.75;;;2.65;;
71196;SDS011;58918;51.652;4.864;2024-01-11T05:02:51;7.82;;;2.50;;
71196;SDS011;58918;51.652;4.864;2024-01-11T05:05:18;5.88;;;2.88;;
71196;SDS011;58918;51.652;4.864;2024-01-11T05:07:48;7.82;;;2.50;;
71196;SDS011;58918;51.652;4.864;2024-01-11T05:10:16;8.25;;;2.78;;
71196;SDS011;58918;51.652;4.864;2024-01-11T05:12:46;6.60;;;2.67;;
71196;SDS011;58918;51.652;4.864;2024-01-11T05:15:14;9.13;;;3.30;;
71196;SDS011;58918;51.652;4.864;2024-01-11T05:17:44;6.93;;;2.70;;
71196;SDS011;58918;51.652;4.864;2024-01-11T05:20:11;7.80;;;2.90;;
71196;SDS011;58918;51.652;4.864;2024-01-11T05:22:38;7.43;;;2.72;;
71196;SDS011;58918;51.652;4.864;2024-01-11T05:25:06;8.00;;;2.70;;
71196;SDS011;58918;51.652;4.864;2024-01-11T05:27:33;6.68;;;2.95;;
71196;SDS011;58918;51.652;4.864;2024-01-11T05:30:00;6.32;;;2.42;;
71196;SDS011;58918;51.652;4.864;2024-01-11T05:32:27;5.75;;;2.40;;
71196;SDS011;58918;51.652;4.864;2024-01-11T05:34:55;6.40;;;2.55;;
71196;SDS011;58918;51.652;4.864;2024-01-11T05:37:22;7.97;;;2.85;;
71196;SDS011;58918;51.652;4.864;2024-01-11T05:39:52;7.78;;;3.00;;
71196;SDS011;58918;51.652;4.864;2024-01-11T05:42:20;6.68;;;2.53;;
71196;SDS011;58918;51.652;4.864;2024-01-11T05:44:47;6.68;;;2.80;;
71196;SDS011;58918;51.652;4.864;2024-01-11T05:47:14;6.60;;;2.83;;
71196;SDS011;58918;51.652;4.864;2024-01-11T05:49:42;6.18;;;2.40;;
71196;SDS011;58918;51.652;4.864;2024-01-11T05:52:09;6.22;;;2.88;;
71196;SDS011;58918;51.652;4.864;2024-01-11T05:54:36;7.10;;;2.78;;
71196;SDS011;58918;51.652;4.864;2024-01-11T05:57:03;5.93;;;2.42;;
71196;SDS011;58918;51.652;4.864;2024-01-11T05:59:31;7.07;;;2.80;;
71196;SDS011;58918;51.652;4.864;2024-01-11T06:01:58;9.32;;;2.55;;
71196;SDS011;58918;51.652;4.864;2024-01-11T06:04:27;5.60;;;2.63;;
71196;SDS011;58918;51.652;4.864;2024-01-11T06:06:56;6.25;;;2.88;;
71196;SDS011;58918;51.652;4.864;2024-01-11T06:09:23;6.70;;;2.80;;
71196;SDS011;58918;51.652;4.864;2024-01-11T06:11:50;7.03;;;2.78;;
71196;SDS011;58918;51.652;4.864;2024-01-11T06:14:17;5.88;;;2.60;;
71196;SDS011;58918;51.652;4.864;2024-01-11T06:16:45;6.72;;;2.53;;
71196;SDS011;58918;51.652;4.864;2024-01-11T06:19:12;5.85;;;2.45;;
71196;SDS011;58918;51.652;4.864;2024-01-11T06:21:39;6.97;;;2.50;;
71196;SDS011;58918;51.652;4.864;2024-01-11T06:24:07;5.35;;;2.40;;
71196;SDS011;58918;51.652;4.864;2024-01-11T06:26:34;6.93;;;2.80;;
71196;SDS011;58918;51.652;4.864;2024-01-11T06:29:01;6.30;;;2.72;;
71196;SDS011;58918;51.652;4.864;2024-01-11T06:31:29;7.68;;;2.65;;
71196;SDS011;58918;51.652;4.864;2024-01-11T06:33:56;6.03;;;2.47;;
71196;SDS011;58918;51.652;4.864;2024-01-11T06:36:23;5.15;;;2.33;;
71196;SDS011;58918;51.652;4.864;2024-01-11T06:38:51;7.45;;;2.58;;
71196;SDS011;58918;51.652;4.864;2024-01-11T06:41:18;7.47;;;2.75;;
71196;SDS011;58918;51.652;4.864;2024-01-11T06:43:45;7.13;;;2.50;;
71196;SDS011;58918;51.652;4.864;2024-01-11T06:46:12;5.80;;;2.50;;
71196;SDS011;58918;51.652;4.864;2024-01-11T06:48:42;6.20;;;2.70;;
71196;SDS011;58918;51.652;4.864;2024-01-11T06:51:09;6.43;;;2.47;;
71196;SDS011;58918;51.652;4.864;2024-01-11T06:53:36;5.18;;;2.28;;
71196;SDS011;58918;51.652;4.864;2024-01-11T06:56:12;5.43;;;2.45;;
71196;SDS011;58918;51.652;4.864;2024-01-11T06:58:40;5.40;;;2.45;;
71196;SDS011;58918;51.652;4.864;2024-01-11T07:01:07;6.25;;;2.28;;
71196;SDS011;58918;51.652;4.864;2024-01-11T07:03:35;5.75;;;2.67;;
71196;SDS011;58918;51.652;4.864;2024-01-11T07:06:02;6.00;;;2.10;;
71196;SDS011;58918;51.652;4.864;2024-01-11T07:08:30;5.97;;;2.88;;
71196;SDS011;58918;51.652;4.864;2024-01-11T07:11:02;4.32;;;2.13;;
71196;SDS011;58918;51.652;4.864;2024-01-11T07:13:29;5.72;;;2.22;;
71196;SDS011;58918;51.652;4.864;2024-01-11T07:16:00;5.57;;;2.33;;
71196;SDS011;58918;51.652;4.864;2024-01-11T07:18:29;6.97;;;2.63;;
71196;SDS011;58918;51.652;4.864;2024-01-11T07:20:56;5.78;;;2.40;;
71196;SDS011;58918;51.652;4.864;2024-01-11T07:23:24;6.43;;;2.25;;
71196;SDS011;58918;51.652;4.864;2024-01-11T07:25:52;6.18;;;2.47;;
71196;SDS011;58918;51.652;4.864;2024-01-11T07:28:19;5.38;;;2.10;;
71196;SDS011;58918;51.652;4.864;2024-01-11T07:30:51;5.60;;;2.47;;
71196;SDS011;58918;51.652;4.864;2024-01-11T07:33:22;6.60;;;2.47;;
71196;SDS011;58918;51.652;4.864;2024-01-11T07:35:49;7.28;;;2.53;;
71196;SDS011;58918;51.652;4.864;2024-01-11T07:38:17;6.30;;;2.30;;
71196;SDS011;58918;51.652;4.864;2024-01-11T07:40:44;7.57;;;2.40;;
71196;SDS011;58918;51.652;4.864;2024-01-11T07:43:11;7.63;;;2.92;;
71196;SDS011;58918;51.652;4.864;2024-01-11T07:45:40;6.70;;;2.83;;
71196;SDS011;58918;51.652;4.864;2024-01-11T07:48:07;6.53;;;2.70;;
71196;SDS011;58918;51.652;4.864;2024-01-11T07:50:35;6.55;;;2.30;;
71196;SDS011;58918;51.652;4.864;2024-01-11T07:53:02;5.65;;;2.35;;
71196;SDS011;58918;51.652;4.864;2024-01-11T07:55:29;6.20;;;2.63;;
71196;SDS011;58918;51.652;4.864;2024-01-11T07:57:57;6.82;;;2.45;;
71196;SDS011;58918;51.652;4.864;2024-01-11T08:00:24;6.35;;;2.33;;
71196;SDS011;58918;51.652;4.864;2024-01-11T08:02:52;6.63;;;2.90;;
71196;SDS011;58918;51.652;4.864;2024-01-11T08:05:20;7.78;;;2.28;;
71196;SDS011;58918;51.652;4.864;2024-01-11T08:07:48;6.57;;;3.08;;
71196;SDS011;58918;51.652;4.864;2024-01-11T08:10:15;6.68;;;2.50;;
71196;SDS011;58918;51.652;4.864;2024-01-11T08:12:43;5.88;;;2.58;;
71196;SDS011;58918;51.652;4.864;2024-01-11T08:15:13;5.55;;;2.55;;
71196;SDS011;58918;51.652;4.864;2024-01-11T08:17:44;5.50;;;2.47;;
71196;SDS011;58918;51.652;4.864;2024-01-11T08:20:11;5.88;;;2.30;;
71196;SDS011;58918;51.652;4.864;2024-01-11T08:22:39;4.20;;;2.05;;
71196;SDS011;58918;51.652;4.864;2024-01-11T08:25:06;6.95;;;2.90;;
71196;SDS011;58918;51.652;4.864;2024-01-11T08:27:34;6.18;;;2.50;;
71196;SDS011;58918;51.652;4.864;2024-01-11T08:30:01;5.95;;;2.10;;
71196;SDS011;58918;51.652;4.864;2024-01-11T08:32:30;5.50;;;2.30;;
71196;SDS011;58918;51.652;4.864;2024-01-11T08:35:04;5.70;;;2.22;;
71196;SDS011;58918;51.652;4.864;2024-01-11T08:37:32;5.95;;;2.67;;
71196;SDS011;58918;51.652;4.864;2024-01-11T08:39:59;6.13;;;2.65;;
71196;SDS011;58918;51.652;4.864;2024-01-11T08:42:27;5.18;;;2.08;;
71196;SDS011;58918;51.652;4.864;2024-01-11T08:44:54;6.18;;;2.58;;
71196;SDS011;58918;51.652;4.864;2024-01-11T08:47:23;5.22;;;2.45;;
71196;SDS011;58918;51.652;4.864;2024-01-11T08:49:53;5.22;;;2.45;;
71196;SDS011;58918;51.652;4.864;2024-01-11T08:57:16;5.85;;;2.78;;
71196;SDS011;58918;51.652;4.864;2024-01-11T08:59:44;6.47;;;3.00;;
71196;SDS011;58918;51.652;4.864;2024-01-11T09:02:11;6.20;;;2.53;;
71196;SDS011;58918;51.652;4.864;2024-01-11T09:04:44;6.18;;;2.42;;
71196;SDS011;58918;51.652;4.864;2024-01-11T09:09:41;5.45;;;2.33;;
71196;SDS011;58918;51.652;4.864;2024-01-11T09:12:21;5.80;;;2.50;;
71196;SDS011;58918;51.652;4.864;2024-01-11T09:14:48;5.63;;;2.30;;
71196;SDS011;58918;51.652;4.864;2024-01-11T09:17:15;5.57;;;2.30;;
71196;SDS011;58918;51.652;4.864;2024-01-11T09:19:43;6.18;;;2.88;;
71196;SDS011;58918;51.652;4.864;2024-01-11T09:22:10;4.90;;;2.13;;
71196;SDS011;58918;51.652;4.864;2024-01-11T09:24:37;6.03;;;2.30;;
71196;SDS011;58918;51.652;4.864;2024-01-11T09:27:05;6.95;;;2.50;;
71196;SDS011;58918;51.652;4.864;2024-01-11T09:29:33;5.68;;;2.53;;
71196;SDS011;58918;51.652;4.864;2024-01-11T09:32:02;6.78;;;2.72;;
71196;SDS011;58918;51.652;4.864;2024-01-11T09:34:30;5.63;;;2.40;;
71196;SDS011;58918;51.652;4.864;2024-01-11T09:36:58;5.03;;;2.17;;
71196;SDS011;58918;51.652;4.864;2024-01-11T09:39:25;6.10;;;2.47;;
71196;SDS011;58918;51.652;4.864;2024-01-11T09:41:57;6.90;;;2.45;;
71196;SDS011;58918;51.652;4.864;2024-01-11T09:44:25;5.10;;;2.30;;
71196;SDS011;58918;51.652;4.864;2024-01-11T09:46:53;6.25;;;2.38;;
71196;SDS011;58918;51.652;4.864;2024-01-11T09:49:21;7.05;;;2.10;;
71196;SDS011;58918;51.652;4.864;2024-01-11T09:51:49;5.25;;;2.20;;
71196;SDS011;58918;51.652;4.864;2024-01-11T09:54:18;7.10;;;2.78;;
71196;SDS011;58918;51.652;4.864;2024-01-11T09:56:49;6.00;;;2.25;;
71196;SDS011;58918;51.652;4.864;2024-01-11T09:59:21;4.28;;;1.88;;
71196;SDS011;58918;51.652;4.864;2024-01-11T10:01:48;4.68;;;2.20;;
71196;SDS011;58918;51.652;4.864;2024-01-11T10:04:16;6.05;;;2.10;;
71196;SDS011;58918;51.652;4.864;2024-01-11T10:06:43;6.20;;;2.30;;
71196;SDS011;58918;51.652;4.864;2024-01-11T10:09:11;5.40;;;2.35;;
71196;SDS011;58918;51.652;4.864;2024-01-11T10:11:39;4.80;;;2.15;;
71196;SDS011;58918;51.652;4.864;2024-01-11T10:14:06;7.82;;;2.75;;
71196;SDS011;58918;51.652;4.864;2024-01-11T10:16:34;4.75;;;2.25;;
71196;SDS011;58918;51.652;4.864;2024-01-11T10:19:01;5.65;;;2.30;;
71196;SDS011;58918;51.652;4.864;2024-01-11T10:21:30;6.38;;;2.40;;
71196;SDS011;58918;51.652;4.864;2024-01-11T10:23:58;4.53;;;2.08;;
71196;SDS011;58918;51.652;4.864;2024-01-11T10:26:29;5.25;;;2.45;;
71196;SDS011;58918;51.652;4.864;2024-01-11T10:31:28;6.38;;;2.50;;
71196;SDS011;58918;51.652;4.864;2024-01-11T10:33:55;5.95;;;2.70;;
71196;SDS011;58918;51.652;4.864;2024-01-11T10:36:23;7.05;;;2.55;;
71196;SDS011;58918;51.652;4.864;2024-01-11T10:38:50;6.72;;;2.75;;
71196;SDS011;58918;51.652;4.864;2024-01-11T10:41:19;5.57;;;2.42;;
71196;SDS011;58918;51.652;4.864;2024-01-11T10:43:46;7.32;;;2.47;;
71196;SDS011;58918;51.652;4.864;2024-01-11T10:46:16;5.32;;;2.50;;
71196;SDS011;58918;51.652;4.864;2024-01-11T10:48:46;5.18;;;2.25;;
71196;SDS011;58918;51.652;4.864;2024-01-11T10:51:14;5.93;;;2.47;;
71196;SDS011;58918;51.652;4.864;2024-01-11T10:53:46;6.05;;;2.45;;
71196;SDS011;58918;51.652;4.864;2024-01-11T10:56:15;5.32;;;2.38;;
71196;SDS011;58918;51.652;4.864;2024-01-11T10:58:44;6.00;;;2.35;;
71196;SDS011;58918;51.652;4.864;2024-01-11T11:01:11;6.05;;;2.53;;
71196;SDS011;58918;51.652;4.864;2024-01-11T11:03:39;5.15;;;2.50;;
71196;SDS011;58918;51.652;4.864;2024-01-11T11:06:09;6.03;;;2.60;;
71196;SDS011;58918;51.652;4.864;2024-01-11T11:08:39;5.50;;;2.20;;
71196;SDS011;58918;51.652;4.864;2024-01-11T11:11:06;5.55;;;2.30;;
71196;SDS011;58918;51.652;4.864;2024-01-11T11:13:35;5.60;;;2.80;;
71196;SDS011;58918;51.652;4.864;2024-01-11T11:16:05;5.82;;;2.40;;
71196;SDS011;58918;51.652;4.864;2024-01-11T11:18:32;4.68;;;1.98;;
71196;SDS011;58918;51.652;4.864;2024-01-11T11:21:06;5.28;;;2.20;;
71196;SDS011;58918;51.652;4.864;2024-01-11T11:23:36;5.10;;;2.40;;
71196;SDS011;58918;51.652;4.864;2024-01-11T11:26:05;5.53;;;2.22;;
71196;SDS011;58918;51.652;4.864;2024-01-11T11:28:36;5.47;;;2.42;;
71196;SDS011;58918;51.652;4.864;2024-01-11T11:31:03;5.50;;;2.55;;
71196;SDS011;58918;51.652;4.864;2024-01-11T11:33:30;5.53;;;2.30;;
71196;SDS011;58918;51.652;4.864;2024-01-11T11:35:58;5.85;;;2.20;;
71196;SDS011;58918;51.652;4.864;2024-01-11T11:38:27;5.28;;;2.63;;
71196;SDS011;58918;51.652;4.864;2024-01-11T11:40:58;6.30;;;2.33;;
71196;SDS011;58918;51.652;4.864;2024-01-11T11:43:26;5.95;;;2.40;;
71196;SDS011;58918;51.652;4.864;2024-01-11T11:45:54;4.85;;;2.10;;
71196;SDS011;58918;51.652;4.864;2024-01-11T11:51:11;6.53;;;2.35;;
71196;SDS011;58918;51.652;4.864;2024-01-11T11:53:43;5.65;;;2.38;;
71196;SDS011;58918;51.652;4.864;2024-01-11T11:56:12;4.95;;;2.00;;
71196;SDS011;58918;51.652;4.864;2024-01-11T11:58:43;5.13;;;2.15;;
71196;SDS011;58918;51.652;4.864;2024-01-11T12:01:11;4.57;;;1.92;;
71196;SDS011;58918;51.652;4.864;2024-01-11T12:03:40;6.15;;;2.67;;
71196;SDS011;58918;51.652;4.864;2024-01-11T12:06:08;7.70;;;2.65;;
71196;SDS011;58918;51.652;4.864;2024-01-11T12:08:38;4.93;;;2.17;;
71196;SDS011;58918;51.652;4.864;2024-01-11T12:11:09;4.70;;;2.10;;
71196;SDS011;58918;51.652;4.864;2024-01-11T12:13:36;5.15;;;2.17;;
71196;SDS011;58918;51.652;4.864;2024-01-11T12:16:03;4.72;;;2.08;;
71196;SDS011;58918;51.652;4.864;2024-01-11T12:18:31;5.20;;;2.10;;
71196;SDS011;58918;51.652;4.864;2024-01-11T12:20:58;6.25;;;2.58;;
71196;SDS011;58918;51.652;4.864;2024-01-11T12:23:27;5.45;;;1.90;;
71196;SDS011;58918;51.652;4.864;2024-01-11T12:25:57;4.65;;;2.13;;
71196;SDS011;58918;51.652;4.864;2024-01-11T12:28:26;6.05;;;2.47;;
71196;SDS011;58918;51.652;4.864;2024-01-11T12:30:53;5.47;;;1.90;;
71196;SDS011;58918;51.652;4.864;2024-01-11T12:33:20;5.07;;;2.10;;
71196;SDS011;58918;51.652;4.864;2024-01-11T12:35:48;5.32;;;2.33;;
71196;SDS011;58918;51.652;4.864;2024-01-11T12:38:16;5.45;;;2.00;;
71196;SDS011;58918;51.652;4.864;2024-01-11T12:40:43;5.75;;;1.90;;
71196;SDS011;58918;51.652;4.864;2024-01-11T12:43:15;4.80;;;1.85;;
71196;SDS011;58918;51.652;4.864;2024-01-11T12:45:42;4.15;;;1.95;;
71196;SDS011;58918;51.652;4.864;2024-01-11T12:48:09;4.40;;;1.85;;
71196;SDS011;58918;51.652;4.864;2024-01-11T12:50:40;5.07;;;1.95;;
71196;SDS011;58918;51.652;4.864;2024-01-11T12:53:08;5.22;;;1.80;;
71196;SDS011;58918;51.652;4.864;2024-01-11T12:55:38;5.50;;;1.90;;
71196;SDS011;58918;51.652;4.864;2024-01-11T12:58:22;5.28;;;1.75;;
71196;SDS011;58918;51.652;4.864;2024-01-11T13:00:50;4.28;;;1.88;;
71196;SDS011;58918;51.652;4.864;2024-01-11T13:03:19;5.15;;;1.90;;
71196;SDS011;58918;51.652;4.864;2024-01-11T13:05:49;5.57;;;2.35;;
71196;SDS011;58918;51.652;4.864;2024-01-11T13:08:18;4.45;;;1.77;;
71196;SDS011;58918;51.652;4.864;2024-01-11T13:10:46;4.72;;;1.70;;
71196;SDS011;58918;51.652;4.864;2024-01-11T13:13:15;3.97;;;1.60;;
71196;SDS011;58918;51.652;4.864;2024-01-11T13:15:42;3.95;;;1.73;;
71196;SDS011;58918;51.652;4.864;2024-01-11T13:18:09;5.60;;;1.95;;
71196;SDS011;58918;51.652;4.864;2024-01-11T13:20:37;4.20;;;1.70;;
71196;SDS011;58918;51.652;4.864;2024-01-11T13:25:42;4.60;;;1.38;;
71196;SDS011;58918;51.652;4.864;2024-01-11T13:28:09;4.82;;;1.70;;
71196;SDS011;58918;51.652;4.864;2024-01-11T13:30:43;4.05;;;1.83;;
71196;SDS011;58918;51.652;4.864;2024-01-11T13:33:11;4.32;;;1.83;;
71196;SDS011;58918;51.652;4.864;2024-01-11T13:35:39;6.20;;;1.90;;
71196;SDS011;58918;51.652;4.864;2024-01-11T13:38:07;4.07;;;1.63;;
71196;SDS011;58918;51.652;4.864;2024-01-11T13:40:35;4.15;;;1.48;;
71196;SDS011;58918;51.652;4.864;2024-01-11T13:43:02;3.85;;;1.42;;
71196;SDS011;58918;51.652;4.864;2024-01-11T13:45:29;4.20;;;1.60;;
71196;SDS011;58918;51.652;4.864;2024-01-11T13:47:59;4.00;;;1.52;;
71196;SDS011;58918;51.652;4.864;2024-01-11T13:50:27;4.72;;;1.58;;
71196;SDS011;58918;51.652;4.864;2024-01-11T13:52:54;3.97;;;1.65;;
71196;SDS011;58918;51.652;4.864;2024-01-11T13:55:21;5.07;;;1.80;;
71196;SDS011;58918;51.652;4.864;2024-01-11T13:57:51;3.92;;;1.30;;
71196;SDS011;58918;51.652;4.864;2024-01-11T14:00:19;4.57;;;1.77;;
71196;SDS011;58918;51.652;4.864;2024-01-11T14:02:47;5.32;;;1.70;;
71196;SDS011;58918;51.652;4.864;2024-01-11T14:05:15;4.35;;;1.67;;
71196;SDS011;58918;51.652;4.864;2024-01-11T14:07:45;4.05;;;1.48;;
71196;SDS011;58918;51.652;4.864;2024-01-11T14:10:14;4.07;;;1.50;;
71196;SDS011;58918;51.652;4.864;2024-01-11T14:12:41;5.15;;;1.67;;
71196;SDS011;58918;51.652;4.864;2024-01-11T14:15:09;4.57;;;1.63;;
71196;SDS011;58918;51.652;4.864;2024-01-11T14:17:40;3.63;;;1.48;;
71196;SDS011;58918;51.652;4.864;2024-01-11T14:20:08;4.05;;;1.50;;
71196;SDS011;58918;51.652;4.864;2024-01-11T14:22:41;4.18;;;1.50;;
71196;SDS011;58918;51.652;4.864;2024-01-11T14:25:09;5.07;;;1.75;;
71196;SDS011;58918;51.652;4.864;2024-01-11T14:27:39;4.57;;;1.70;;
71196;SDS011;58918;51.652;4.864;2024-01-11T14:30:07;3.45;;;1.33;;
71196;SDS011;58918;51.652;4.864;2024-01-11T14:32:36;3.45;;;1.30;;
71196;SDS011;58918;51.652;4.864;2024-01-11T14:35:07;3.72;;;1.50;;
71196;SDS011;58918;51.652;4.864;2024-01-11T14:37:35;4.20;;;1.35;;
71196;SDS011;58918;51.652;4.864;2024-01-11T14:40:03;4.38;;;1.45;;
71196;SDS011;58918;51.652;4.864;2024-01-11T14:42:30;4.47;;;1.35;;
71196;SDS011;58918;51.652;4.864;2024-01-11T14:44:57;4.03;;;1.23;;
71196;SDS011;58918;51.652;4.864;2024-01-11T14:47:25;4.07;;;1.40;;
71196;SDS011;58918;51.652;4.864;2024-01-11T14:49:52;4.38;;;1.58;;
71196;SDS011;58918;51.652;4.864;2024-01-11T14:52:22;4.07;;;1.30;;
71196;SDS011;58918;51.652;4.864;2024-01-11T14:54:50;4.10;;;1.58;;
71196;SDS011;58918;51.652;4.864;2024-01-11T14:57:17;4.13;;;1.52;;
71196;SDS011;58918;51.652;4.864;2024-01-11T14:59:45;4.13;;;1.38;;
71196;SDS011;58918;51.652;4.864;2024-01-11T15:02:13;2.97;;;1.27;;
71196;SDS011;58918;51.652;4.864;2024-01-11T15:04:40;3.85;;;1.20;;
71196;SDS011;58918;51.652;4.864;2024-01-11T15:07:07;4.45;;;1.42;;
71196;SDS011;58918;51.652;4.864;2024-01-11T15:09:39;4.32;;;1.30;;